Time;durP1;ratioP1;P1;durP2;ratioP2;P2;SDS_P1;SDS_P2;PMS_P1;PMS_P2;Temp;Humidity;BMP_temperature;BMP_pressure;BME280_temperature;BME280_humidity;BME280_pressure;Samples;Min_cycle;Max_cycle;Signal;HPM_P1;HPM_P2
2021/07/04 00:01:32;;;;;;;19.30;14.03;;;19.90;99.90;;;;;;4902484;29;20202;-84
2021/07/04 00:03:58;;;;;;;19.23;13.00;;;19.90;99.90;;;;;;4899166;29;20225;-85
2021/07/04 00:06:24;;;;;;;19.43;13.50;;;19.90;99.90;;;;;;4883738;29;20680;-85
2021/07/04 00:08:49;;;;;;;19.27;14.00;;;19.90;99.90;;;;;;4883382;29;20338;-85
2021/07/04 00:11:16;;;;;;;17.97;13.27;;;19.90;99.90;;;;;;4883891;29;20220;-84
2021/07/04 00:13:42;;;;;;;22.30;14.60;;;19.90;99.90;;;;;;4883738;29;20251;-84
2021/07/04 00:16:07;;;;;;;19.87;14.50;;;20.00;99.90;;;;;;4883724;29;20181;-84
2021/07/04 00:18:34;;;;;;;19.63;14.77;;;20.00;99.90;;;;;;4883810;29;20546;-84
2021/07/04 00:21:03;;;;;;;21.93;15.07;;;20.10;99.90;;;;;;4883748;29;20213;-84
2021/07/04 00:23:29;;;;;;;20.60;15.17;;;20.10;99.90;;;;;;4883560;29;20295;-84
2021/07/04 00:25:56;;;;;;;23.10;14.80;;;20.10;99.90;;;;;;4900850;29;20191;-84
2021/07/04 00:28:23;;;;;;;25.43;16.67;;;20.30;99.90;;;;;;4902165;29;20543;-84
2021/07/04 00:30:50;;;;;;;25.33;15.33;;;20.40;99.90;;;;;;4902022;29;20192;-84
2021/07/04 00:33:15;;;;;;;21.00;15.80;;;20.30;99.90;;;;;;4902087;29;20186;-84
2021/07/04 00:35:41;;;;;;;24.60;16.33;;;20.10;99.90;;;;;;4901984;29;20553;-84
2021/07/04 00:38:08;;;;;;;21.37;15.33;;;20.00;99.90;;;;;;4902115;29;20174;-84
2021/07/04 00:40:36;;;;;;;22.40;16.20;;;19.90;99.90;;;;;;4901881;29;20194;-84
2021/07/04 00:43:03;;;;;;;21.37;15.43;;;19.70;99.90;;;;;;4901696;29;20687;-84
2021/07/04 00:45:29;;;;;;;22.97;14.43;;;19.60;99.90;;;;;;4897817;29;20188;-85
2021/07/04 00:47:56;;;;;;;19.43;14.30;;;19.50;99.90;;;;;;4883185;29;20672;-85
2021/07/04 00:50:24;;;;;;;20.60;14.70;;;19.70;99.90;;;;;;4883223;29;20188;-85
2021/07/04 00:52:53;;;;;;;20.53;14.43;;;19.70;99.90;;;;;;4883106;29;20207;-84
2021/07/04 00:55:19;;;;;;;19.93;14.17;;;19.70;99.90;;;;;;4883033;29;20529;-84
2021/07/04 00:57:46;;;;;;;21.40;14.83;;;19.50;99.90;;;;;;4882943;29;20184;-84
2021/07/04 01:00:16;;;;;;;25.00;14.33;;;19.40;99.90;;;;;;4882486;29;20230;-84
2021/07/04 01:02:43;;;;;;;19.30;14.00;;;19.50;99.90;;;;;;4883112;29;20206;-85
2021/07/04 01:05:13;;;;;;;20.73;13.90;;;19.30;99.90;;;;;;4891229;29;20314;-84
2021/07/04 01:07:40;;;;;;;19.23;14.63;;;19.20;99.90;;;;;;4901384;29;20185;-85
2021/07/04 01:10:08;;;;;;;20.43;14.43;;;19.30;99.90;;;;;;4901304;29;20195;-84
2021/07/04 01:12:35;;;;;;;20.97;14.17;;;19.50;99.90;;;;;;4901616;29;20241;-85
2021/07/04 01:15:02;;;;;;;20.07;14.43;;;19.60;99.90;;;;;;4900809;29;20192;-84
2021/07/04 01:17:30;;;;;;;20.93;14.83;;;19.60;99.90;;;;;;4901266;29;20261;-84
2021/07/04 01:19:57;;;;;;;21.13;14.93;;;19.80;99.90;;;;;;4900393;29;20331;-84
2021/07/04 01:22:26;;;;;;;17.60;14.10;;;19.90;99.90;;;;;;4918013;29;20194;-84
2021/07/04 01:24:51;;;;;;;21.93;14.37;;;19.90;99.90;;;;;;4901195;29;20314;-84
2021/07/04 01:27:18;;;;;;;19.57;14.40;;;20.00;99.90;;;;;;4897903;29;20659;-84
2021/07/04 01:29:43;;;;;;;23.00;15.30;;;20.00;99.90;;;;;;4882303;29;20588;-84
2021/07/04 01:32:09;;;;;;;21.87;14.77;;;20.10;99.90;;;;;;4882415;29;20183;-84
2021/07/04 01:34:34;;;;;;;20.23;14.10;;;19.90;99.90;;;;;;4882552;29;20211;-85
2021/07/04 01:37:00;;;;;;;18.30;13.70;;;19.80;99.90;;;;;;4882461;29;20185;-84
2021/07/04 01:39:28;;;;;;;19.30;13.63;;;20.00;99.90;;;;;;4882095;29;20179;-84
2021/07/04 01:41:54;;;;;;;20.17;14.17;;;20.10;99.90;;;;;;4899222;29;20174;-84
2021/07/04 01:44:20;;;;;;;19.53;13.37;;;20.20;99.90;;;;;;4883536;29;20258;-84
2021/07/04 01:46:46;;;;;;;17.10;13.60;;;20.30;99.90;;;;;;4901118;29;20591;-84
2021/07/04 01:49:12;;;;;;;16.23;12.97;;;20.10;99.90;;;;;;4900841;29;20193;-85
2021/07/04 01:51:37;;;;;;;16.67;12.77;;;20.00;99.90;;;;;;4900930;29;20190;-84
2021/07/04 01:54:03;;;;;;;18.80;13.57;;;20.00;99.90;;;;;;4901185;29;20286;-85
2021/07/04 01:56:29;;;;;;;21.67;13.43;;;20.00;99.90;;;;;;4897388;29;20282;-83
2021/07/04 01:58:54;;;;;;;17.33;12.87;;;19.90;99.90;;;;;;4897450;29;20214;-84
2021/07/04 02:01:20;;;;;;;18.50;12.90;;;19.90;99.90;;;;;;4897815;29;20191;-84
2021/07/04 02:03:46;;;;;;;17.67;12.97;;;20.00;99.90;;;;;;4897624;29;20271;-84
2021/07/04 02:06:12;;;;;;;21.43;13.50;;;20.10;99.90;;;;;;4912908;29;20313;-84
2021/07/04 02:08:37;;;;;;;17.53;12.87;;;20.20;99.90;;;;;;4900913;29;20798;-84
2021/07/04 02:11:04;;;;;;;18.43;12.37;;;20.10;99.90;;;;;;4900688;29;20193;-84
2021/07/04 02:13:29;;;;;;;16.20;11.90;;;20.00;99.90;;;;;;4900562;29;20184;-84
2021/07/04 02:15:55;;;;;;;15.77;12.50;;;19.90;99.90;;;;;;4897250;29;20242;-85
2021/07/04 02:18:20;;;;;;;18.53;13.20;;;20.00;99.90;;;;;;4882012;29;20227;-84
2021/07/04 02:20:49;;;;;;;15.33;11.87;;;19.90;99.90;;;;;;4882120;29;20644;-84
2021/07/04 02:23:27;;;;;;;20.10;12.67;;;19.70;99.90;;;;;;4881815;29;20283;-84
2021/07/04 02:25:54;;;;;;;16.93;12.33;;;19.60;99.90;;;;;;4882080;29;20183;-85
2021/07/04 02:28:21;;;;;;;16.83;11.70;;;19.70;99.90;;;;;;4881611;29;20196;-84
2021/07/04 02:30:50;;;;;;;14.47;11.90;;;19.60;99.90;;;;;;4883557;29;20184;-84
2021/07/04 02:33:17;;;;;;;15.07;11.67;;;19.60;99.90;;;;;;4885412;29;20210;-85
2021/07/04 02:35:45;;;;;;;16.07;12.03;;;19.80;99.90;;;;;;4885461;29;20588;-85
2021/07/04 02:38:11;;;;;;;15.80;12.07;;;19.90;99.90;;;;;;4885206;29;20598;-84
2021/07/04 02:40:38;;;;;;;16.97;12.53;;;20.10;99.90;;;;;;4885342;29;20283;-84
2021/07/04 02:43:05;;;;;;;19.03;12.33;;;20.10;99.90;;;;;;4885067;29;20221;-84
2021/07/04 02:45:31;;;;;;;16.60;11.90;;;20.10;99.90;;;;;;4884897;29;20196;-85
2021/07/04 02:47:57;;;;;;;18.40;12.53;;;20.10;99.90;;;;;;4885204;29;20192;-84
2021/07/04 02:50:23;;;;;;;16.33;12.30;;;20.10;99.90;;;;;;4885343;29;20187;-84
2021/07/04 02:52:50;;;;;;;17.33;11.60;;;20.20;99.90;;;;;;4885482;29;20207;-84
2021/07/04 02:55:16;;;;;;;13.97;11.03;;;20.20;99.90;;;;;;4890563;29;20558;-84
2021/07/04 02:57:42;;;;;;;17.67;12.63;;;20.10;99.90;;;;;;4903764;29;20667;-85
2021/07/04 03:00:09;;;;;;;17.50;11.40;;;19.90;99.90;;;;;;4903905;29;20184;-85
2021/07/04 03:02:35;;;;;;;12.57;10.17;;;19.90;99.90;;;;;;4903352;29;20551;-85
2021/07/04 03:05:00;;;;;;;14.67;11.00;;;19.90;99.90;;;;;;4902599;29;20205;-85
2021/07/04 03:07:26;;;;;;;14.13;11.03;;;19.80;99.90;;;;;;4903861;29;20269;-84
2021/07/04 03:09:53;;;;;;;15.67;11.00;;;19.80;99.90;;;;;;4920640;29;20181;-85
2021/07/04 03:12:19;;;;;;;14.60;11.03;;;19.90;99.90;;;;;;4903248;29;20286;-85
2021/07/04 03:14:44;;;;;;;13.70;10.87;;;19.80;99.90;;;;;;4902352;29;20218;-85
2021/07/04 03:17:10;;;;;;;13.03;10.47;;;19.70;99.90;;;;;;4884686;29;20255;-85
2021/07/04 03:19:36;;;;;;;14.70;10.77;;;19.60;99.90;;;;;;4884680;29;20659;-84
2021/07/04 03:22:02;;;;;;;16.03;11.40;;;19.60;99.90;;;;;;4884568;29;20247;-85
2021/07/04 03:24:27;;;;;;;14.77;10.97;;;19.50;99.90;;;;;;4884457;29;20220;-84
2021/07/04 03:26:53;;;;;;;12.43;10.07;;;19.60;99.90;;;;;;4900535;29;20183;-85
2021/07/04 03:29:19;;;;;;;13.67;10.13;;;19.70;99.90;;;;;;4903015;29;20187;-84
2021/07/04 03:31:45;;;;;;;16.37;10.30;;;19.60;99.90;;;;;;4903502;29;20194;-84
2021/07/04 03:34:11;;;;;;;11.67;9.77;;;19.50;99.90;;;;;;4903395;29;20191;-84
2021/07/04 03:36:37;;;;;;;13.90;9.40;;;19.40;99.90;;;;;;4899655;29;20554;-84
2021/07/04 03:39:04;;;;;;;15.57;10.50;;;19.40;99.90;;;;;;4884164;29;20186;-84
2021/07/04 03:41:30;;;;;;;12.57;10.53;;;19.40;99.90;;;;;;4900170;29;20185;-84
2021/07/04 03:43:59;;;;;;;14.50;10.63;;;19.30;99.90;;;;;;4884210;29;20228;-85
2021/07/04 03:46:25;;;;;;;13.60;10.20;;;19.20;99.90;;;;;;4890803;29;20197;-84
2021/07/04 03:48:51;;;;;;;14.23;10.17;;;19.20;99.90;;;;;;4884060;29;20216;-85
2021/07/04 03:51:16;;;;;;;12.43;10.00;;;19.20;99.90;;;;;;4884318;29;20192;-85
2021/07/04 03:53:42;;;;;;;10.63;8.80;;;19.10;99.90;;;;;;4883822;29;20185;-85
2021/07/04 03:56:08;;;;;;;13.97;10.07;;;19.20;99.90;;;;;;4890397;29;20199;-85
2021/07/04 03:58:33;;;;;;;13.73;10.87;;;19.10;99.90;;;;;;4902658;29;20194;-84
2021/07/04 04:00:59;;;;;;;15.03;10.97;;;19.20;99.90;;;;;;4919492;29;20197;-85
2021/07/04 04:03:24;;;;;;;15.60;10.37;;;19.20;99.90;;;;;;4902635;29;20661;-85
2021/07/04 04:05:50;;;;;;;17.23;11.83;;;19.20;99.90;;;;;;4898975;29;20222;-85
2021/07/04 04:08:16;;;;;;;17.93;10.43;;;19.20;99.90;;;;;;4883450;29;20190;-84
2021/07/04 04:10:42;;;;;;;14.10;10.30;;;19.30;99.90;;;;;;4884013;29;20183;-84
2021/07/04 04:13:09;;;;;;;13.67;10.63;;;19.40;99.90;;;;;;4883802;29;20192;-84
2021/07/04 04:15:34;;;;;;;14.17;10.80;;;19.40;99.90;;;;;;4885440;29;20188;-84
2021/07/04 04:18:00;;;;;;;13.53;10.50;;;19.50;99.90;;;;;;4901897;29;20652;-84
2021/07/04 04:20:26;;;;;;;13.80;10.43;;;19.50;99.90;;;;;;4902389;29;20198;-85
2021/07/04 04:22:51;;;;;;;13.33;10.40;;;19.70;99.90;;;;;;4901681;29;20212;-84
2021/07/04 04:25:18;;;;;;;15.53;10.70;;;20.00;99.90;;;;;;4902348;29;20251;-85
2021/07/04 04:27:44;;;;;;;15.43;11.03;;;20.20;99.90;;;;;;4898231;29;20196;-84
2021/07/04 04:30:10;;;;;;;15.70;11.23;;;20.40;99.90;;;;;;4882986;29;20284;-84
2021/07/04 04:32:36;;;;;;;16.70;11.70;;;20.50;99.90;;;;;;4883143;29;20212;-84
2021/07/04 04:35:01;;;;;;;16.37;11.60;;;20.80;99.90;;;;;;4883401;29;20220;-84
2021/07/04 04:37:27;;;;;;;16.20;11.73;;;20.70;99.90;;;;;;4898161;29;20183;-85
2021/07/04 04:39:53;;;;;;;16.70;12.10;;;20.60;99.90;;;;;;4901163;29;20534;-84
2021/07/04 04:42:18;;;;;;;14.90;11.60;;;20.50;99.90;;;;;;4901817;29;20214;-84
2021/07/04 04:44:44;;;;;;;14.23;11.03;;;20.50;99.90;;;;;;4918345;29;20224;-85
2021/07/04 04:47:10;;;;;;;18.70;11.90;;;20.30;99.90;;;;;;4898338;29;20180;-84
2021/07/04 04:49:37;;;;;;;16.10;11.43;;;20.20;99.90;;;;;;4882854;29;20244;-84
2021/07/04 04:52:04;;;;;;;18.13;13.23;;;20.40;99.90;;;;;;4894347;29;20188;-83
2021/07/04 04:54:30;;;;;;;16.33;12.70;;;20.40;99.90;;;;;;4891386;29;20237;-84
2021/07/04 04:56:56;;;;;;;18.27;14.03;;;20.30;99.90;;;;;;4898995;29;20187;-84
2021/07/04 04:59:22;;;;;;;19.13;14.07;;;20.20;99.90;;;;;;4899756;29;20222;-83
2021/07/04 05:01:47;;;;;;;15.13;12.50;;;20.30;99.90;;;;;;4900338;29;20278;-84
2021/07/04 05:04:13;;;;;;;16.00;12.23;;;20.50;99.90;;;;;;4900750;29;20256;-84
2021/07/04 05:06:41;;;;;;;14.90;11.77;;;20.50;99.90;;;;;;4896697;29;20662;-85
2021/07/04 05:09:07;;;;;;;11.20;8.83;;;20.50;99.90;;;;;;4898534;29;20202;-84
2021/07/04 05:11:33;;;;;;;12.87;9.37;;;20.60;99.90;;;;;;4899199;29;20183;-84
2021/07/04 05:13:59;;;;;;;12.70;9.23;;;20.60;99.90;;;;;;4900149;29;20195;-83
2021/07/04 05:16:24;;;;;;;11.40;8.47;;;20.60;99.90;;;;;;4900181;29;20179;-84
2021/07/04 05:18:51;;;;;;;10.17;8.03;;;20.80;99.90;;;;;;4898511;29;20555;-84
2021/07/04 05:21:17;;;;;;;9.47;7.53;;;20.90;99.90;;;;;;4895890;29;20189;-84
2021/07/04 05:23:42;;;;;;;9.27;7.27;;;20.90;99.90;;;;;;4895749;29;20216;-85
2021/07/04 05:26:08;;;;;;;7.23;5.77;;;21.00;99.90;;;;;;4899224;29;20539;-84
2021/07/04 05:28:34;;;;;;;9.77;6.57;;;21.10;99.90;;;;;;4897459;29;20680;-84
2021/07/04 05:31:00;;;;;;;9.83;6.07;;;21.00;99.90;;;;;;4882545;29;20744;-84
2021/07/04 05:33:25;;;;;;;7.93;6.23;;;21.20;99.90;;;;;;4882416;29;20251;-85
2021/07/04 05:35:51;;;;;;;9.03;6.83;;;21.20;99.90;;;;;;4891095;29;20200;-84
2021/07/04 05:38:21;;;;;;;9.03;6.37;;;21.50;99.90;;;;;;4901023;29;20188;-85
2021/07/04 05:40:48;;;;;;;8.20;6.10;;;21.40;99.90;;;;;;4901030;29;20184;-85
2021/07/04 05:43:14;;;;;;;8.60;6.63;;;21.20;99.90;;;;;;4900957;29;20260;-88
2021/07/04 05:45:40;;;;;;;9.57;6.93;;;21.20;99.90;;;;;;4897688;29;20184;-89
2021/07/04 05:48:06;;;;;;;7.83;6.30;;;21.30;99.90;;;;;;4882544;29;20192;-89
2021/07/04 05:50:31;;;;;;;6.27;5.53;;;21.40;99.90;;;;;;4881529;29;20291;-85
2021/07/04 05:52:57;;;;;;;6.50;5.77;;;21.50;99.90;;;;;;4881963;29;20180;-84
2021/07/04 05:55:23;;;;;;;8.90;6.30;;;21.50;99.90;;;;;;4885452;29;20192;-89
2021/07/04 05:57:49;;;;;;;6.83;5.43;;;21.50;99.90;;;;;;4900273;29;20192;-88
2021/07/04 06:00:15;;;;;;;7.57;6.33;;;21.80;99.90;;;;;;4880476;29;20188;-88
2021/07/04 06:02:42;;;;;;;7.03;5.77;;;21.60;99.90;;;;;;4880831;29;20204;-89
2021/07/04 06:05:08;;;;;;;7.37;6.00;;;21.80;99.90;;;;;;4881956;29;20233;-88
2021/07/04 06:07:35;;;;;;;8.10;5.80;;;21.70;99.90;;;;;;4885272;29;20193;-89
2021/07/04 06:10:04;;;;;;;6.67;5.57;;;21.80;99.90;;;;;;4885729;29;20276;-89
2021/07/04 06:12:29;;;;;;;8.73;6.23;;;21.70;99.90;;;;;;4885952;29;20207;-89
2021/07/04 06:14:55;;;;;;;7.53;5.90;;;21.60;99.90;;;;;;4901625;29;20649;-88
2021/07/04 06:17:20;;;;;;;7.37;5.40;;;21.60;99.90;;;;;;4901381;29;20223;-90
2021/07/04 06:19:46;;;;;;;6.73;5.37;;;21.70;99.90;;;;;;4901212;29;20221;-89
2021/07/04 06:22:12;;;;;;;9.47;5.67;;;21.70;99.90;;;;;;4901604;29;20611;-90
2021/07/04 06:24:37;;;;;;;7.67;5.37;;;21.70;99.90;;;;;;4902477;29;20221;-88
2021/07/04 06:27:03;;;;;;;9.13;5.70;;;21.70;99.90;;;;;;4910759;29;20271;-88
2021/07/04 06:29:29;;;;;;;6.63;5.90;;;21.80;99.90;;;;;;4904356;29;20195;-89
2021/07/04 06:31:55;;;;;;;7.57;5.80;;;21.90;99.90;;;;;;4904593;29;20642;-89
2021/07/04 06:34:20;;;;;;;8.93;5.60;;;22.00;99.90;;;;;;4903895;29;20195;-89
2021/07/04 06:36:46;;;;;;;6.23;5.53;;;22.30;99.90;;;;;;4904143;29;20195;-89
2021/07/04 06:39:12;;;;;;;7.63;5.77;;;22.30;99.90;;;;;;4904394;29;20196;-89
2021/07/04 06:41:37;;;;;;;7.50;5.77;;;22.20;99.90;;;;;;4921080;29;20203;-89
2021/07/04 06:44:03;;;;;;;6.57;5.20;;;22.10;99.90;;;;;;4900934;29;20276;-90
2021/07/04 06:46:29;;;;;;;6.90;5.43;;;22.20;99.90;;;;;;4885388;29;20265;-89
2021/07/04 06:48:54;;;;;;;6.93;5.40;;;22.50;99.90;;;;;;4885102;29;20216;-88
2021/07/04 06:51:20;;;;;;;7.47;5.20;;;22.80;99.90;;;;;;4885322;29;20199;-89
2021/07/04 06:53:46;;;;;;;5.37;4.30;;;22.40;99.90;;;;;;4887975;29;20199;-89
2021/07/04 06:56:11;;;;;;;4.70;4.17;;;22.30;99.90;;;;;;4885121;29;20222;-88
2021/07/04 06:58:37;;;;;;;5.80;5.20;;;22.20;99.90;;;;;;4885643;29;20181;-89
2021/07/04 07:01:03;;;;;;;6.60;5.30;;;22.30;99.90;;;;;;4885610;29;20207;-88
2021/07/04 07:03:29;;;;;;;6.30;5.07;;;22.50;99.90;;;;;;4885002;29;20284;-88
2021/07/04 07:05:55;;;;;;;6.80;5.03;;;22.50;99.90;;;;;;4885070;29;20205;-88
2021/07/04 07:08:20;;;;;;;7.80;4.80;;;22.50;99.90;;;;;;4885303;29;20256;-89
2021/07/04 07:10:46;;;;;;;7.37;4.47;;;22.60;99.90;;;;;;4885012;29;20182;-88
2021/07/04 07:13:13;;;;;;;5.73;4.07;;;22.70;99.90;;;;;;4884813;29;20705;-89
2021/07/04 07:15:39;;;;;;;5.00;4.20;;;22.60;99.90;;;;;;4885201;29;20676;-89
2021/07/04 07:18:04;;;;;;;8.73;5.00;;;22.60;99.90;;;;;;4883389;29;20197;-90
2021/07/04 07:20:30;;;;;;;7.47;4.60;;;22.80;99.90;;;;;;4884901;29;20196;-89
2021/07/04 07:22:55;;;;;;;5.87;4.20;;;22.90;99.90;;;;;;4884948;29;20619;-89
2021/07/04 07:25:21;;;;;;;4.47;4.07;;;22.90;99.90;;;;;;4885220;29;20196;-89
2021/07/04 07:27:47;;;;;;;4.40;4.00;;;23.00;99.90;;;;;;4901187;29;20585;-89
2021/07/04 07:30:13;;;;;;;5.37;3.37;;;23.10;99.90;;;;;;4900254;29;20714;-89
2021/07/04 07:32:40;;;;;;;3.27;2.97;;;23.10;99.90;;;;;;4884310;29;20650;-88
2021/07/04 07:35:08;;;;;;;5.07;3.40;;;23.10;99.90;;;;;;4900381;29;20245;-89
2021/07/04 07:37:35;;;;;;;3.87;2.90;;;23.10;99.90;;;;;;4884586;29;20677;-88
2021/07/04 07:40:01;;;;;;;4.87;2.60;;;23.20;99.90;;;;;;4884507;29;20181;-90
2021/07/04 07:42:28;;;;;;;3.13;2.83;;;23.30;99.90;;;;;;4884836;29;20212;-88
2021/07/04 07:44:53;;;;;;;3.83;2.90;;;23.60;99.90;;;;;;4912187;29;20761;-89
2021/07/04 07:47:19;;;;;;;3.10;2.50;;;23.80;99.90;;;;;;4903113;29;20219;-89
2021/07/04 07:49:45;;;;;;;2.70;2.27;;;23.90;99.90;;;;;;4902945;29;20200;-88
2021/07/04 07:52:10;;;;;;;3.43;2.50;;;23.90;99.90;;;;;;4903352;29;20717;-87
2021/07/04 07:54:37;;;;;;;2.40;2.20;;;24.00;99.90;;;;;;4899419;29;20540;-90
2021/07/04 07:57:03;;;;;;;2.73;2.20;;;24.10;99.90;;;;;;4884183;29;20544;-89
2021/07/04 07:59:30;;;;;;;2.30;1.60;;;24.20;99.90;;;;;;4884471;29;20643;-89
2021/07/04 08:01:56;;;;;;;3.53;1.90;;;24.00;99.90;;;;;;4884039;29;20782;-89
2021/07/04 08:04:21;;;;;;;2.60;1.90;;;24.10;99.90;;;;;;4888101;29;20745;-89
2021/07/04 08:06:47;;;;;;;1.90;1.50;;;23.90;99.90;;;;;;4884375;29;20201;-90
2021/07/04 08:09:13;;;;;;;2.07;1.70;;;23.90;99.90;;;;;;4883733;29;20182;-89
2021/07/04 08:11:39;;;;;;;2.60;2.10;;;24.00;99.90;;;;;;4884421;29;20193;-89
2021/07/04 08:14:04;;;;;;;3.07;1.50;;;24.00;99.90;;;;;;4883860;29;20190;-89
2021/07/04 08:16:30;;;;;;;1.93;1.43;;;24.00;99.90;;;;;;4899398;29;20186;-88
2021/07/04 08:18:56;;;;;;;2.03;1.80;;;23.90;99.90;;;;;;4899163;29;20277;-89
2021/07/04 08:21:22;;;;;;;2.17;1.80;;;24.10;99.90;;;;;;4899512;29;20234;-89
2021/07/04 08:23:48;;;;;;;2.90;1.83;;;24.20;99.90;;;;;;4898847;29;20223;-89
2021/07/04 08:26:14;;;;;;;3.60;1.93;;;24.20;99.90;;;;;;4899495;29;20261;-90
2021/07/04 08:28:40;;;;;;;1.80;1.50;;;24.40;99.90;;;;;;4898834;29;20181;-89
2021/07/04 08:31:06;;;;;;;2.63;1.70;;;24.50;99.90;;;;;;4899090;29;20185;-89
2021/07/04 08:33:31;;;;;;;3.13;2.00;;;24.60;99.90;;;;;;4911782;29;20244;-89
2021/07/04 08:35:57;;;;;;;2.43;1.70;;;24.70;99.90;;;;;;4899197;29;20264;-88
2021/07/04 08:38:23;;;;;;;3.30;1.87;;;24.70;99.90;;;;;;4883436;29;20197;-88
2021/07/04 08:40:51;;;;;;;2.93;2.10;;;24.60;99.90;;;;;;4883559;29;20191;-90
2021/07/04 08:43:43;;;;;;;3.83;1.80;;;24.70;99.90;;;;;;4889792;29;20279;-89
2021/07/04 08:46:11;;;;;;;2.83;2.00;;;24.80;99.90;;;;;;4886216;29;20368;-89
2021/07/04 08:48:38;;;;;;;2.43;1.93;;;24.60;99.90;;;;;;4899302;29;20189;-88
2021/07/04 08:51:06;;;;;;;2.83;1.80;;;24.80;99.90;;;;;;4899061;29;20214;-90
2021/07/04 08:53:32;;;;;;;2.87;1.60;;;24.60;99.90;;;;;;4883328;29;20190;-89
2021/07/04 08:55:58;;;;;;;2.60;1.70;;;24.80;99.90;;;;;;4883473;29;20182;-89
2021/07/04 08:58:25;;;;;;;2.30;1.47;;;24.80;99.90;;;;;;4888585;29;20562;-90
2021/07/04 09:01:11;;;;;;;1.40;1.30;;;24.70;99.90;;;;;;4883577;29;20753;-90
2021/07/04 09:03:39;;;;;;;3.00;1.70;;;24.80;99.90;;;;;;4882843;29;21099;-89
2021/07/04 09:06:04;;;;;;;2.87;1.40;;;24.80;99.90;;;;;;4882960;29;20208;-89
2021/07/04 09:08:30;;;;;;;2.00;1.50;;;25.00;99.90;;;;;;4888529;29;20195;-89
2021/07/04 09:11:18;;;;;;;1.40;1.20;;;25.10;99.90;;;;;;4884199;29;20249;-89
2021/07/04 09:13:45;;;;;;;1.40;1.17;;;25.20;99.90;;;;;;4882448;29;20541;-89
2021/07/04 09:16:24;;;;;;;1.50;1.30;;;25.10;99.90;;;;;;4882849;29;20197;-89
2021/07/04 09:19:09;;;;;;;1.70;1.10;;;25.20;99.90;;;;;;4898539;29;20208;-89
2021/07/04 09:21:36;;;;;;;1.57;1.07;;;25.40;99.60;;;;;;4888325;29;20633;-89
2021/07/04 09:24:20;;;;;;;2.77;1.37;;;25.40;99.20;;;;;;4901358;29;20221;-89
2021/07/04 09:26:46;;;;;;;1.10;0.93;;;25.40;98.80;;;;;;4900965;29;20187;-86
2021/07/04 09:29:11;;;;;;;1.17;1.03;;;25.40;99.40;;;;;;4901349;29;20287;-89
2021/07/04 09:31:39;;;;;;;3.37;1.20;;;25.50;99.50;;;;;;4897827;29;20184;-89
2021/07/04 09:34:07;;;;;;;3.20;1.37;;;25.60;98.40;;;;;;4882857;29;20195;-89
2021/07/04 09:36:33;;;;;;;1.40;1.07;;;25.70;99.10;;;;;;4882718;29;20183;-90
2021/07/04 09:39:00;;;;;;;1.30;1.20;;;25.70;98.60;;;;;;4882550;29;20240;-89
2021/07/04 09:41:26;;;;;;;2.17;1.20;;;25.80;98.20;;;;;;4893347;29;20283;-89
2021/07/04 09:43:52;;;;;;;2.00;1.00;;;25.80;98.80;;;;;;4882473;29;20213;-89
2021/07/04 09:46:18;;;;;;;2.50;1.40;;;25.80;98.40;;;;;;4882374;29;20240;-90
2021/07/04 09:48:45;;;;;;;1.50;1.23;;;25.80;98.60;;;;;;4882083;29;20224;-89
2021/07/04 09:51:22;;;;;;;2.20;1.00;;;26.00;98.20;;;;;;4894976;29;20239;-89
2021/07/04 09:53:57;;;;;;;1.50;1.17;;;26.20;97.90;;;;;;4901288;29;20768;-89
2021/07/04 09:56:28;;;;;;;1.83;1.23;;;26.20;98.30;;;;;;4900815;29;20186;-90
2021/07/04 09:58:56;;;;;;;2.30;1.43;;;26.10;98.00;;;;;;4900895;29;20188;-89
2021/07/04 10:01:46;;;;;;;3.10;1.60;;;26.00;98.80;;;;;;4897421;29;20219;-89
2021/07/04 10:04:29;;;;;;;2.10;1.50;;;26.10;98.50;;;;;;4882140;29;20223;-89
2021/07/04 10:06:56;;;;;;;2.40;1.77;;;25.90;99.10;;;;;;4882360;29;20556;-89
2021/07/04 10:09:26;;;;;;;1.90;1.57;;;26.00;98.60;;;;;;4882075;29;20232;-89
2021/07/04 10:11:52;;;;;;;2.90;1.60;;;26.00;98.30;;;;;;4895223;29;20275;-89
2021/07/04 10:14:18;;;;;;;2.17;2.03;;;25.90;98.60;;;;;;4882318;29;20661;-89
2021/07/04 10:16:45;;;;;;;2.10;1.57;;;25.80;98.70;;;;;;4882046;29;20179;-89
2021/07/04 10:19:21;;;;;;;2.73;1.87;;;25.60;98.90;;;;;;4882254;29;20664;-89
2021/07/04 10:21:59;;;;;;;4.20;2.27;;;25.50;98.50;;;;;;4894226;29;20263;-89
2021/07/04 10:24:26;;;;;;;3.43;2.07;;;25.50;98.50;;;;;;4882201;29;20220;-90
2021/07/04 10:26:53;;;;;;;2.80;2.40;;;25.40;99.00;;;;;;4882017;29;20179;-89
2021/07/04 10:29:23;;;;;;;2.33;1.80;;;25.20;99.70;;;;;;4882355;29;20195;-90
2021/07/04 10:31:48;;;;;;;3.47;2.20;;;25.00;99.60;;;;;;4894159;29;20187;-89
2021/07/04 10:34:16;;;;;;;4.53;1.50;;;24.80;99.90;;;;;;4897685;29;20182;-87
2021/07/04 10:37:01;;;;;;;18.07;1.90;;;24.20;99.90;;;;;;4897625;29;20249;-88
2021/07/04 10:39:29;;;;;;;51.53;4.60;;;20.40;99.90;;;;;;4897790;29;20176;-87
2021/07/04 10:42:02;;;;;;;80.83;5.63;;;18.30;99.90;;;;;;4913464;29;20246;-88
2021/07/04 10:44:49;;;;;;;10.83;1.00;;;17.10;99.90;;;;;;4900821;29;20292;-88
2021/07/04 10:47:16;;;;;;;14.67;1.57;;;16.40;99.90;;;;;;4900603;29;20236;-87
2021/07/04 10:49:51;;;;;;;4.83;0.90;;;15.90;99.90;;;;;;4900528;29;20189;-86
2021/07/04 10:52:42;;;;;;;5.27;1.20;;;15.80;99.90;;;;;;4899582;29;20192;-88
2021/07/04 10:55:12;;;;;;;12.37;1.63;;;15.60;99.90;;;;;;4885102;29;20268;-88
2021/07/04 10:57:50;;;;;;;5.33;0.83;;;15.70;99.90;;;;;;4885333;29;20208;-89
2021/07/04 11:00:19;;;;;;;11.23;1.13;;;15.30;99.90;;;;;;4886215;29;20548;-87
2021/07/04 11:02:49;;;;;;;7.90;1.60;;;15.20;99.90;;;;;;4885026;29;20202;-90
2021/07/04 11:05:36;;;;;;;22.30;2.67;;;15.30;99.90;;;;;;4885177;29;20223;-88
2021/07/04 11:08:01;;;;;;;22.23;1.90;;;15.40;99.90;;;;;;4900119;29;20190;-89
2021/07/04 11:10:30;;;;;;;10.03;1.57;;;15.60;99.90;;;;;;4885781;29;20183;-86
2021/07/04 11:13:16;;;;;;;25.67;2.60;;;15.70;99.90;;;;;;4884889;29;20189;-89
2021/07/04 11:16:06;;;;;;;20.10;2.40;;;15.80;99.90;;;;;;4900766;29;20192;-89
2021/07/04 11:19:06;;;;;;;13.03;2.20;;;16.00;99.90;;;;;;4900326;29;20552;-87
2021/07/04 11:21:55;;;;;;;2.87;1.37;;;15.70;99.90;;;;;;4865800;29;20217;-89
2021/07/04 11:24:29;;;;;;;10.53;2.33;;;16.00;99.90;;;;;;4884292;29;20214;-88
2021/07/04 11:27:24;;;;;;;4.00;1.50;;;16.30;99.90;;;;;;4884477;29;20197;-86
2021/07/04 11:30:26;;;;;;;12.67;2.23;;;16.40;99.90;;;;;;4901384;29;20204;-88
2021/07/04 11:33:31;;;;;;;4.13;1.30;;;16.30;99.90;;;;;;4843363;29;20658;-88
2021/07/04 11:36:00;;;;;;;3.23;1.30;;;16.60;99.90;;;;;;4917739;29;20186;-88
2021/07/04 11:38:28;;;;;;;2.80;1.63;;;16.70;99.90;;;;;;4902969;29;20545;-85
2021/07/04 11:40:55;;;;;;;2.33;1.53;;;16.60;99.90;;;;;;4903091;29;20189;-83
2021/07/04 11:43:26;;;;;;;3.33;1.40;;;16.80;99.90;;;;;;4918941;29;20281;-88
2021/07/04 11:45:59;;;;;;;2.17;0.97;;;16.80;99.90;;;;;;4899738;29;20611;-86
2021/07/04 11:48:51;;;;;;;5.03;1.47;;;16.80;99.90;;;;;;4884106;29;20176;-89
2021/07/04 11:51:42;;;;;;;2.93;1.30;;;16.40;99.90;;;;;;4900638;29;20188;-88
2021/07/04 11:54:19;;;;;;;2.00;1.33;;;16.60;99.90;;;;;;4893860;29;20273;-88
2021/07/04 11:57:30;;;;;;;2.20;1.20;;;16.80;99.90;;;;;;4902994;29;20646;-86
2021/07/04 12:00:06;;;;;;;3.93;1.30;;;17.20;99.90;;;;;;4919411;29;20269;-90
2021/07/04 12:02:34;;;;;;;2.60;1.30;;;17.40;99.90;;;;;;4898517;29;20205;-87
2021/07/04 12:05:11;;;;;;;3.30;1.10;;;17.60;99.90;;;;;;4883908;29;20256;-87
2021/07/04 12:07:36;;;;;;;2.33;1.10;;;17.70;99.90;;;;;;4883764;29;20188;-88
2021/07/04 12:10:03;;;;;;;4.90;1.23;;;17.80;99.90;;;;;;4883938;29;20185;-89
2021/07/04 12:12:34;;;;;;;1.57;1.10;;;17.80;99.90;;;;;;4887123;29;20223;-87
2021/07/04 12:15:07;;;;;;;2.20;0.93;;;17.80;99.90;;;;;;4883852;29;20203;-88
2021/07/04 12:17:42;;;;;;;2.47;1.00;;;17.70;99.90;;;;;;4900340;29;20181;-89
2021/07/04 12:20:17;;;;;;;2.53;1.37;;;17.80;99.90;;;;;;4883692;29;20223;-88
2021/07/04 12:22:57;;;;;;;3.37;1.40;;;17.90;99.90;;;;;;4887529;29;20181;-87
2021/07/04 12:25:26;;;;;;;2.70;1.40;;;18.00;99.90;;;;;;4883748;29;20189;-87
2021/07/04 12:27:54;;;;;;;1.97;1.00;;;18.10;99.90;;;;;;4883656;29;20199;-87
2021/07/04 12:30:31;;;;;;;2.77;1.17;;;18.00;99.90;;;;;;4883658;29;20276;-87
2021/07/04 12:33:09;;;;;;;2.63;1.30;;;18.20;99.90;;;;;;4899611;29;20641;-87
2021/07/04 12:35:42;;;;;;;2.00;1.37;;;18.30;99.90;;;;;;4883415;29;20537;-88
2021/07/04 12:38:17;;;;;;;2.60;1.10;;;18.20;99.90;;;;;;4895174;29;20185;-87
2021/07/04 12:40:57;;;;;;;1.77;1.10;;;18.20;99.90;;;;;;4902282;29;20307;-87
2021/07/04 12:43:28;;;;;;;2.57;1.30;;;18.30;99.90;;;;;;4902062;29;20215;-88
2021/07/04 12:45:55;;;;;;;3.10;1.23;;;18.40;99.90;;;;;;4902093;29;20184;-86